Time;durP1;ratioP1;P1;durP2;ratioP2;P2;SDS_P1;SDS_P2;PMS_P1;PMS_P2;Temp;Humidity;BMP_temperature;BMP_pressure;BME280_temperature;BME280_humidity;BME280_pressure;Samples;Min_cycle;Max_cycle;Signal;HPM_P1;HPM_P2
2022/06/08 00:00:13;;;;;;;8.65;3.95;;;;;;;;;;4969735;28;20034;-75
2022/06/08 00:02:40;;;;;;;7.32;5.10;;;;;;;;;;4971984;28;20035;-75
2022/06/08 00:05:07;;;;;;;5.05;4.22;;;;;;;;;;4971361;28;20065;-75
2022/06/08 00:07:32;;;;;;;4.65;3.35;;;;;;;;;;4971865;28;20038;-75
2022/06/08 00:09:59;;;;;;;7.95;3.97;;;;;;;;;;4972280;28;20096;-77
2022/06/08 00:12:25;;;;;;;7.20;3.58;;;;;;;;;;4971769;28;20018;-75
2022/06/08 00:14:51;;;;;;;4.03;3.50;;;;;;;;;;4970499;28;20450;-75
2022/06/08 00:17:17;;;;;;;7.03;3.80;;;;;;;;;;4970355;28;20065;-76
2022/06/08 00:19:42;;;;;;;5.63;3.83;;;;;;;;;;4971779;28;20517;-76
2022/06/08 00:22:08;;;;;;;7.55;6.63;;;;;;;;;;4979595;28;20053;-75
2022/06/08 00:24:33;;;;;;;5.38;4.72;;;;;;;;;;4991395;28;20069;-77
2022/06/08 00:27:00;;;;;;;4.63;4.18;;;;;;;;;;4991031;28;20049;-75
2022/06/08 00:29:26;;;;;;;5.78;4.05;;;;;;;;;;4989357;28;20230;-75
2022/06/08 00:31:51;;;;;;;8.48;4.07;;;;;;;;;;4990769;28;20555;-75
2022/06/08 00:34:17;;;;;;;4.78;3.67;;;;;;;;;;4990800;28;20114;-74
2022/06/08 00:36:42;;;;;;;8.52;4.47;;;;;;;;;;4989603;28;20100;-75
2022/06/08 00:39:08;;;;;;;4.53;3.70;;;;;;;;;;4989604;28;20045;-75
2022/06/08 00:41:57;;;;;;;4.10;3.70;;;;;;;;;;4991270;28;20031;-75
2022/06/08 00:44:31;;;;;;;7.07;3.30;;;;;;;;;;5005720;28;21039;-75
2022/06/08 00:46:59;;;;;;;4.35;3.00;;;;;;;;;;4989552;28;20030;-75
2022/06/08 00:49:39;;;;;;;4.75;3.58;;;;;;;;;;4989389;28;20085;-75
2022/06/08 00:52:05;;;;;;;8.25;3.80;;;;;;;;;;4990829;28;20030;-75
2022/06/08 00:54:34;;;;;;;9.68;3.28;;;;;;;;;;4990744;28;20105;-75
2022/06/08 00:57:50;;;;;;;3.95;3.40;;;;;;;;;;4990762;28;20080;-75
2022/06/08 01:00:22;;;;;;;8.93;3.47;;;;;;;;;;4991514;28;20041;-75
2022/06/08 01:02:48;;;;;;;4.00;3.40;;;;;;;;;;4990656;28;20030;-76
2022/06/08 01:05:30;;;;;;;6.55;3.60;;;;;;;;;;5005461;28;20497;-75
2022/06/08 01:07:59;;;;;;;4.45;3.50;;;;;;;;;;4989465;28;20057;-76
2022/06/08 01:10:28;;;;;;;4.50;3.70;;;;;;;;;;4988705;28;20419;-74
2022/06/08 01:12:54;;;;;;;4.05;3.50;;;;;;;;;;4989334;28;20398;-75
2022/06/08 01:15:27;;;;;;;3.60;3.10;;;;;;;;;;4990127;28;20033;-74
2022/06/08 01:17:52;;;;;;;3.22;2.95;;;;;;;;;;4990435;28;20299;-74
2022/06/08 01:20:18;;;;;;;4.68;3.42;;;;;;;;;;4988980;28;20030;-75
2022/06/08 01:22:44;;;;;;;3.80;3.45;;;;;;;;;;4976846;28;20106;-75
2022/06/08 01:25:12;;;;;;;6.32;2.97;;;;;;;;;;4971185;28;20489;-74
2022/06/08 01:27:50;;;;;;;9.77;3.65;;;;;;;;;;4970929;28;20106;-74
2022/06/08 01:30:22;;;;;;;3.25;2.95;;;;;;;;;;4971162;28;20027;-75
2022/06/08 01:33:22;;;;;;;5.45;2.88;;;;;;;;;;4969522;28;20126;-75
2022/06/08 01:35:57;;;;;;;3.78;2.75;;;;;;;;;;4970829;28;20038;-75
2022/06/08 01:38:28;;;;;;;7.45;4.88;;;;;;;;;;4970712;28;20026;-75
2022/06/08 01:41:01;;;;;;;4.97;2.83;;;;;;;;;;4969352;28;20137;-75
2022/06/08 01:43:39;;;;;;;4.18;3.08;;;;;;;;;;4969107;28;20343;-75
2022/06/08 01:46:11;;;;;;;6.65;2.80;;;;;;;;;;4969285;28;20038;-75
2022/06/08 01:49:06;;;;;;;5.93;3.00;;;;;;;;;;4970560;28;20077;-74
2022/06/08 01:51:50;;;;;;;11.07;3.10;;;;;;;;;;4969028;28;20034;-75
2022/06/08 01:54:43;;;;;;;4.43;2.80;;;;;;;;;;4970205;28;20027;-76
2022/06/08 01:57:49;;;;;;;5.63;3.15;;;;;;;;;;4970412;28;20055;-74
2022/06/08 02:00:21;;;;;;;5.22;2.90;;;;;;;;;;4970759;28;20026;-75
2022/06/08 02:02:46;;;;;;;4.57;3.10;;;;;;;;;;4969079;28;20483;-75
2022/06/08 02:05:27;;;;;;;3.78;2.88;;;;;;;;;;4970438;28;20018;-75
2022/06/08 02:08:19;;;;;;;2.90;2.60;;;;;;;;;;4970322;28;20037;-74
2022/06/08 02:11:08;;;;;;;4.82;2.15;;;;;;;;;;4969151;28;20046;-75
2022/06/08 02:13:45;;;;;;;5.15;2.35;;;;;;;;;;4968963;28;20038;-73
2022/06/08 02:16:21;;;;;;;3.90;2.42;;;;;;;;;;4968895;28;20027;-74
2022/06/08 02:19:03;;;;;;;4.63;2.83;;;;;;;;;;4970456;28;20050;-74
2022/06/08 02:22:20;;;;;;;4.72;2.72;;;;;;;;;;4973416;28;20057;-74
2022/06/08 02:25:09;;;;;;;4.10;2.63;;;;;;;;;;4994304;28;20058;-74
2022/06/08 02:28:01;;;;;;;3.70;2.65;;;;;;;;;;4992455;28;20096;-75
2022/06/08 02:30:29;;;;;;;;;;;;;;;;;;4993722;28;20030;-75
2022/06/08 02:36:02;;;;;;;5.32;2.28;;;;;;;;;;5001217;28;20065;-75
2022/06/08 02:38:39;;;;;;;5.57;2.80;;;;;;;;;;4991729;28;20027;-75
2022/06/08 02:41:08;;;;;;;3.80;2.63;;;;;;;;;;4993394;28;20180;-75
2022/06/08 02:43:43;;;;;;;7.13;2.70;;;;;;;;;;4992993;28;20081;-75
2022/06/08 02:46:25;;;;;;;4.43;2.45;;;;;;;;;;4993248;28;20037;-75
2022/06/08 02:48:51;;;;;;;2.92;2.70;;;;;;;;;;4991945;28;20034;-75
2022/06/08 02:51:26;;;;;;;5.82;2.67;;;;;;;;;;4992823;28;20033;-75
2022/06/08 02:54:00;;;;;;;3.72;2.60;;;;;;;;;;4991743;28;20049;-75
2022/06/08 02:56:37;;;;;;;5.35;3.50;;;;;;;;;;4993091;28;20038;-74
2022/06/08 02:59:03;;;;;;;4.53;2.22;;;;;;;;;;4994169;28;20569;-75
2022/06/08 03:01:38;;;;;;;7.35;2.53;;;;;;;;;;4996336;28;20026;-75
2022/06/08 03:04:17;;;;;;;3.13;2.60;;;;;;;;;;4994297;28;20060;-75
2022/06/08 03:06:51;;;;;;;3.92;2.53;;;;;;;;;;4992861;28;20034;-75
2022/06/08 03:09:17;;;;;;;4.13;2.40;;;;;;;;;;4991353;28;20212;-76
2022/06/08 03:11:46;;;;;;;2.85;2.55;;;;;;;;;;4992676;28;20121;-76
2022/06/08 03:14:15;;;;;;;3.85;2.22;;;;;;;;;;4991557;28;20351;-72
2022/06/08 03:17:04;;;;;;;5.43;2.40;;;;;;;;;;4992415;28;20022;-75
2022/06/08 03:19:32;;;;;;;3.78;3.00;;;;;;;;;;4992326;28;20057;-75
2022/06/08 03:21:58;;;;;;;6.65;2.85;;;;;;;;;;4983783;28;20041;-75
2022/06/08 03:24:25;;;;;;;4.10;1.92;;;;;;;;;;4971509;28;20399;-75
2022/06/08 03:26:55;;;;;;;2.42;2.20;;;;;;;;;;4971567;28;20475;-75
2022/06/08 03:29:20;;;;;;;8.52;2.70;;;;;;;;;;4973006;28;20483;-75
2022/06/08 03:31:46;;;;;;;16.60;3.45;;;;;;;;;;4972878;28;20109;-74
2022/06/08 03:34:12;;;;;;;3.22;2.00;;;;;;;;;;4971457;28;20035;-75
2022/06/08 03:36:38;;;;;;;3.10;2.70;;;;;;;;;;4972733;28;20042;-75
2022/06/08 03:39:05;;;;;;;4.07;2.53;;;;;;;;;;4971843;28;20030;-75
2022/06/08 03:41:31;;;;;;;3.78;2.58;;;;;;;;;;4972562;28;20515;-75
2022/06/08 03:43:57;;;;;;;3.90;2.78;;;;;;;;;;4972900;28;20126;-74
2022/06/08 03:46:23;;;;;;;3.92;2.08;;;;;;;;;;4970907;28;20118;-75
2022/06/08 03:48:52;;;;;;;4.38;2.63;;;;;;;;;;4971049;28;20035;-75
2022/06/08 03:51:19;;;;;;;4.30;2.60;;;;;;;;;;4971226;28;20538;-75
2022/06/08 03:54:03;;;;;;;5.28;2.63;;;;;;;;;;4972495;28;20110;-75
2022/06/08 03:56:30;;;;;;;3.00;2.33;;;;;;;;;;4972043;28;20046;-75
2022/06/08 03:58:57;;;;;;;4.93;2.88;;;;;;;;;;4972239;28;20038;-75
2022/06/08 04:01:23;;;;;;;2.55;2.33;;;;;;;;;;4971975;28;20031;-75
2022/06/08 04:03:51;;;;;;;5.00;3.28;;;;;;;;;;4972158;28;20125;-75
2022/06/08 04:06:18;;;;;;;4.22;2.55;;;;;;;;;;4972023;28;20038;-75
2022/06/08 04:08:43;;;;;;;3.78;2.63;;;;;;;;;;4972341;28;20035;-75
2022/06/08 04:11:09;;;;;;;22.45;9.88;;;;;;;;;;4971945;28;20105;-75
2022/06/08 04:13:34;;;;;;;4.05;2.75;;;;;;;;;;4971833;28;20038;-75
2022/06/08 04:16:02;;;;;;;5.10;2.90;;;;;;;;;;4972137;28;20042;-75
2022/06/08 04:18:28;;;;;;;4.35;2.60;;;;;;;;;;4970548;28;20042;-78
2022/06/08 04:20:56;;;;;;;3.88;2.40;;;;;;;;;;4955095;28;20467;-75
2022/06/08 04:23:24;;;;;;;5.28;2.55;;;;;;;;;;4989477;28;20081;-75
2022/06/08 04:25:51;;;;;;;3.30;2.38;;;;;;;;;;4991316;28;20133;-75
2022/06/08 04:28:17;;;;;;;8.68;4.32;;;;;;;;;;4989711;28;20109;-75
2022/06/08 04:30:43;;;;;;;3.42;2.13;;;;;;;;;;4989702;28;20478;-75
2022/06/08 04:33:08;;;;;;;6.18;2.50;;;;;;;;;;4990847;28;20562;-75
2022/06/08 04:35:34;;;;;;;4.22;2.50;;;;;;;;;;4990744;28;20422;-75
2022/06/08 04:38:01;;;;;;;7.05;2.75;;;;;;;;;;5022265;28;20124;-75
2022/06/08 04:40:28;;;;;;;2.47;2.20;;;;;;;;;;4989576;28;20394;-76
2022/06/08 04:42:54;;;;;;;7.40;2.65;;;;;;;;;;4989652;28;20032;-75
2022/06/08 04:45:21;;;;;;;5.22;2.22;;;;;;;;;;4990543;28;20040;-75
2022/06/08 04:47:46;;;;;;;5.30;2.35;;;;;;;;;;4990962;28;20045;-75
2022/06/08 04:50:12;;;;;;;4.38;2.40;;;;;;;;;;4989344;28;20034;-75
2022/06/08 04:52:38;;;;;;;3.13;2.65;;;;;;;;;;4990542;28;20431;-74
2022/06/08 04:55:06;;;;;;;5.90;4.75;;;;;;;;;;5005619;28;20058;-76
2022/06/08 04:57:36;;;;;;;3.67;2.47;;;;;;;;;;4990286;28;20040;-75
2022/06/08 05:00:06;;;;;;;3.10;2.70;;;;;;;;;;4989053;28;20109;-75
2022/06/08 05:02:44;;;;;;;6.72;3.08;;;;;;;;;;4988654;28;20096;-76
2022/06/08 05:05:27;;;;;;;3.63;2.92;;;;;;;;;;4990443;28;20022;-76
2022/06/08 05:07:54;;;;;;;3.60;2.40;;;;;;;;;;4989102;28;20034;-76
2022/06/08 05:10:21;;;;;;;4.53;2.72;;;;;;;;;;4990291;28;20360;-75
2022/06/08 05:12:49;;;;;;;7.07;3.17;;;;;;;;;;4988862;28;20395;-71
2022/06/08 05:15:18;;;;;;;7.05;2.55;;;;;;;;;;4988939;28;20038;-72
2022/06/08 05:17:44;;;;;;;5.10;2.58;;;;;;;;;;4990159;28;20034;-72
2022/06/08 05:20:11;;;;;;;3.63;2.78;;;;;;;;;;4989949;28;20022;-71
2022/06/08 05:22:37;;;;;;;5.15;2.63;;;;;;;;;;4976077;28;20047;-71
2022/06/08 05:25:05;;;;;;;6.25;2.75;;;;;;;;;;4970768;28;20062;-71
2022/06/08 05:27:31;;;;;;;4.47;2.53;;;;;;;;;;4970478;28;20034;-71
2022/06/08 05:29:56;;;;;;;7.72;4.28;;;;;;;;;;4968697;28;20093;-71
2022/06/08 05:32:22;;;;;;;4.97;3.20;;;;;;;;;;4970246;28;20039;-71
2022/06/08 05:34:48;;;;;;;6.70;3.30;;;;;;;;;;4968966;28;20030;-72
2022/06/08 05:37:13;;;;;;;4.90;2.88;;;;;;;;;;4969445;28;20361;-72
2022/06/08 05:39:39;;;;;;;4.60;2.83;;;;;;;;;;4971495;28;20106;-71
2022/06/08 05:42:05;;;;;;;7.82;3.28;;;;;;;;;;4977083;28;20038;-72
2022/06/08 05:44:32;;;;;;;7.72;3.30;;;;;;;;;;4980664;28;20614;-72
2022/06/08 05:46:58;;;;;;;7.78;3.65;;;;;;;;;;4983435;28;20092;-72
2022/06/08 05:49:24;;;;;;;13.70;3.60;;;;;;;;;;4989259;28;21019;-72
2022/06/08 05:51:51;;;;;;;3.53;2.70;;;;;;;;;;4977978;28;20026;-72
2022/06/08 05:54:17;;;;;;;6.22;3.30;;;;;;;;;;5003170;28;20048;-74
2022/06/08 05:56:42;;;;;;;8.52;3.13;;;;;;;;;;4979310;28;20031;-72
2022/06/08 05:59:09;;;;;;;5.32;2.83;;;;;;;;;;4984599;28;20238;-74
2022/06/08 06:01:35;;;;;;;2.75;2.53;;;;;;;;;;4991653;28;20022;-72
2022/06/08 06:04:05;;;;;;;6.20;3.03;;;;;;;;;;4996841;28;20037;-71
2022/06/08 06:06:31;;;;;;;6.32;2.65;;;;;;;;;;5014897;28;20034;-73
2022/06/08 06:08:57;;;;;;;9.77;3.10;;;;;;;;;;5009121;28;20026;-72
2022/06/08 06:11:23;;;;;;;3.75;2.80;;;;;;;;;;4984355;28;20030;-72
2022/06/08 06:13:51;;;;;;;6.50;3.65;;;;;;;;;;4985061;28;20104;-72
2022/06/08 06:16:17;;;;;;;5.95;3.45;;;;;;;;;;4986356;28;20050;-71
2022/06/08 06:18:43;;;;;;;7.25;2.92;;;;;;;;;;4984882;28;20363;-72
2022/06/08 06:21:20;;;;;;;4.68;2.67;;;;;;;;;;4985694;28;20041;-74
2022/06/08 06:23:45;;;;;;;4.97;3.15;;;;;;;;;;4971757;28;21919;-73
2022/06/08 06:26:11;;;;;;;5.03;2.78;;;;;;;;;;4992538;28;20050;-74
2022/06/08 06:28:36;;;;;;;6.40;2.95;;;;;;;;;;4983623;28;20049;-73
2022/06/08 06:31:04;;;;;;;6.38;3.45;;;;;;;;;;4984719;28;20031;-71
2022/06/08 06:33:31;;;;;;;3.63;3.08;;;;;;;;;;4980688;28;20201;-74
2022/06/08 06:35:56;;;;;;;6.85;3.20;;;;;;;;;;4985909;28;20132;-74
2022/06/08 06:38:23;;;;;;;4.65;2.88;;;;;;;;;;4978989;28;20169;-76
2022/06/08 06:40:50;;;;;;;4.60;2.80;;;;;;;;;;4989714;28;20540;-74
2022/06/08 06:43:15;;;;;;;6.72;3.80;;;;;;;;;;4989246;28;20029;-74
2022/06/08 06:45:41;;;;;;;5.30;3.90;;;;;;;;;;4987127;28;20034;-73
2022/06/08 06:48:07;;;;;;;9.80;4.80;;;;;;;;;;4998520;28;20648;-74
2022/06/08 06:50:32;;;;;;;8.30;4.82;;;;;;;;;;4978672;28;20029;-74
2022/06/08 06:53:01;;;;;;;6.40;4.60;;;;;;;;;;4983852;28;20535;-72
2022/06/08 06:55:30;;;;;;;12.25;4.60;;;;;;;;;;4985058;28;20026;-73
2022/06/08 06:57:56;;;;;;;3.42;2.83;;;;;;;;;;4977816;28;20042;-71
2022/06/08 07:00:24;;;;;;;9.32;4.07;;;;;;;;;;4981909;28;20053;-75
2022/06/08 07:02:50;;;;;;;7.05;3.60;;;;;;;;;;4984339;28;20042;-72
2022/06/08 07:05:20;;;;;;;11.32;3.63;;;;;;;;;;4982341;28;20042;-73
2022/06/08 07:07:46;;;;;;;7.30;5.15;;;;;;;;;;4997228;28;20448;-73
2022/06/08 07:10:11;;;;;;;9.38;3.00;;;;;;;;;;4982925;28;20045;-75
2022/06/08 07:12:38;;;;;;;3.92;2.88;;;;;;;;;;4983541;28;20049;-75
2022/06/08 07:15:05;;;;;;;3.97;2.30;;;;;;;;;;4982036;28;20061;-73
2022/06/08 07:17:31;;;;;;;4.20;2.47;;;;;;;;;;4988019;28;20153;-72
2022/06/08 07:19:56;;;;;;;5.32;3.22;;;;;;;;;;4983224;28;20172;-74
2022/06/08 07:22:22;;;;;;;7.18;2.53;;;;;;;;;;4981442;28;20065;-74
2022/06/08 07:24:48;;;;;;;2.55;2.33;;;;;;;;;;4987143;28;20038;-72
2022/06/08 07:27:14;;;;;;;6.45;2.33;;;;;;;;;;4998570;28;20038;-73
2022/06/08 07:29:40;;;;;;;6.57;2.22;;;;;;;;;;4986302;28;20030;-76
2022/06/08 07:32:06;;;;;;;5.25;2.20;;;;;;;;;;4967405;28;20035;-76
2022/06/08 07:34:32;;;;;;;8.18;3.00;;;;;;;;;;4986005;28;20046;-74
2022/06/08 07:37:00;;;;;;;2.83;2.42;;;;;;;;;;4983352;28;20466;-74
2022/06/08 07:39:26;;;;;;;7.60;2.00;;;;;;;;;;4983663;28;20157;-76
2022/06/08 07:41:52;;;;;;;5.47;2.28;;;;;;;;;;4983331;28;20114;-76
2022/06/08 07:44:18;;;;;;;5.68;2.47;;;;;;;;;;4994266;28;20041;-75
2022/06/08 07:46:45;;;;;;;3.25;2.47;;;;;;;;;;4979549;28;20031;-73
2022/06/08 07:49:36;;;;;;;3.95;2.10;;;;;;;;;;4983306;28;20037;-73
2022/06/08 07:52:04;;;;;;;;;;;;;;;;;;4971939;28;20057;-74
2022/06/08 07:54:30;;;;;;;2.72;2.35;;;;;;;;;;4983557;28;19914;-71
2022/06/08 07:56:56;;;;;;;6.85;2.20;;;;;;;;;;4983652;28;20053;-73
2022/06/08 07:59:28;;;;;;;4.13;3.08;;;;;;;;;;4991722;28;20030;-75
2022/06/08 08:01:53;;;;;;;7.10;2.42;;;;;;;;;;4982605;28;20022;-71
2022/06/08 08:04:20;;;;;;;2.97;2.30;;;;;;;;;;4978254;28;20034;-74
2022/06/08 08:06:45;;;;;;;2.97;2.65;;;;;;;;;;4983349;28;20038;-72
2022/06/08 08:09:18;;;;;;;3.92;2.10;;;;;;;;;;4982853;28;20037;-73
2022/06/08 08:11:53;;;;;;;5.70;2.08;;;;;;;;;;4997425;28;20038;-72
2022/06/08 08:14:22;;;;;;;3.08;1.88;;;;;;;;;;4979149;28;20038;-73
2022/06/08 08:16:48;;;;;;;5.55;2.63;;;;;;;;;;4981933;28;20034;-74
2022/06/08 08:19:17;;;;;;;1.92;1.73;;;;;;;;;;4965473;28;20038;-72
2022/06/08 08:21:44;;;;;;;4.97;2.17;;;;;;;;;;4977074;28;20069;-72
2022/06/08 08:24:09;;;;;;;5.05;2.05;;;;;;;;;;4977442;28;20078;-74
2022/06/08 08:26:35;;;;;;;4.95;2.10;;;;;;;;;;4984285;28;20478;-74
2022/06/08 08:29:02;;;;;;;4.57;2.72;;;;;;;;;;4997648;28;20033;-73
2022/06/08 08:31:31;;;;;;;2.83;1.80;;;;;;;;;;4984528;28;20035;-75
2022/06/08 08:33:57;;;;;;;2.65;2.08;;;;;;;;;;4975719;28;20611;-73
2022/06/08 08:36:23;;;;;;;5.68;2.15;;;;;;;;;;4983829;28;20081;-74
2022/06/08 08:38:48;;;;;;;3.63;2.20;;;;;;;;;;4981856;28;20310;-73
2022/06/08 08:44:42;;;;;;;3.20;1.83;;;;;;;;;;4980511;28;20088;-75
2022/06/08 08:47:29;;;;;;;5.30;2.03;;;;;;;;;;4983507;28;20065;-74
2022/06/08 08:49:58;;;;;;;7.30;1.73;;;;;;;;;;4978750;28;20080;-77
2022/06/08 08:52:35;;;;;;;4.15;1.77;;;;;;;;;;4983535;28;20046;-74
2022/06/08 08:55:26;;;;;;;3.25;2.20;;;;;;;;;;4984218;28;20029;-76
2022/06/08 08:58:11;;;;;;;3.78;1.55;;;;;;;;;;4968594;28;20049;-75
2022/06/08 09:00:42;;;;;;;2.60;2.35;;;;;;;;;;4979086;28;20035;-75
2022/06/08 09:03:26;;;;;;;2.45;1.35;;;;;;;;;;4980332;28;20124;-75
2022/06/08 09:05:56;;;;;;;3.20;1.55;;;;;;;;;;4983772;28;20065;-74
2022/06/08 09:08:24;;;;;;;2.63;1.88;;;;;;;;;;4982778;28;20029;-79
2022/06/08 09:11:00;;;;;;;5.22;1.80;;;;;;;;;;4996419;28;20042;-74
2022/06/08 09:13:44;;;;;;;3.35;1.30;;;;;;;;;;4981552;28;20038;-74
2022/06/08 09:16:10;;;;;;;3.85;1.50;;;;;;;;;;4984066;28;20485;-75
2022/06/08 09:18:41;;;;;;;1.45;1.10;;;;;;;;;;4985536;28;20035;-75
2022/06/08 09:21:22;;;;;;;4.50;1.80;;;;;;;;;;4983190;28;20018;-75
2022/06/08 09:23:54;;;;;;;10.35;2.97;;;;;;;;;;4999867;28;20057;-73
2022/06/08 09:26:25;;;;;;;6.20;2.10;;;;;;;;;;4986906;28;20070;-72
2022/06/08 09:29:10;;;;;;;7.93;2.33;;;;;;;;;;4985821;28;20022;-75
2022/06/08 09:31:38;;;;;;;2.72;1.50;;;;;;;;;;4977221;28;20053;-74
2022/06/08 09:34:20;;;;;;;2.13;1.50;;;;;;;;;;4980673;28;20022;-76
2022/06/08 09:37:13;;;;;;;1.40;1.30;;;;;;;;;;4984420;28;20041;-74
2022/06/08 09:39:44;;;;;;;4.75;1.17;;;;;;;;;;4977518;28;20052;-76
2022/06/08 09:42:34;;;;;;;2.83;1.45;;;;;;;;;;4997682;28;20049;-74
2022/06/08 09:45:19;;;;;;;3.08;1.50;;;;;;;;;;4980191;28;20034;-74
2022/06/08 09:51:57;;;;;;;3.28;1.52;;;;;;;;;;4973456;28;20734;-73
2022/06/08 09:54:33;;;;;;;2.83;1.30;;;;;;;;;;4993047;28;20080;-74
2022/06/08 09:57:21;;;;;;;1.73;1.25;;;;;;;;;;4979824;28;20038;-76
2022/06/08 10:00:24;;;;;;;2.67;1.33;;;;;;;;;;4977700;28;20033;-76
2022/06/08 10:03:14;;;;;;;1.98;1.02;;;;;;;;;;4977179;28;20042;-76
2022/06/08 10:05:56;;;;;;;4.35;1.20;;;;;;;;;;4977368;28;20094;-74
2022/06/08 10:08:24;;;;;;;2.67;1.50;;;;;;;;;;4983142;28;20042;-77
2022/06/08 10:11:34;;;;;;;2.53;0.80;;;;;;;;;;4979967;28;20034;-75
2022/06/08 10:14:42;;;;;;;1.33;0.55;;;;;;;;;;4974462;28;20034;-76
2022/06/08 10:17:27;;;;;;;0.60;0.55;;;;;;;;;;4973513;28;20030;-74
2022/06/08 10:20:20;;;;;;;2.35;1.08;;;;;;;;;;4976307;28;20030;-76
2022/06/08 10:22:49;;;;;;;1.13;0.93;;;;;;;;;;4976608;28;20684;-72
2022/06/08 10:25:48;;;;;;;7.47;2.92;;;;;;;;;;4997004;28;20382;-75
2022/06/08 10:28:32;;;;;;;1.20;0.95;;;;;;;;;;4980618;28;20089;-75
2022/06/08 10:31:21;;;;;;;14.52;1.00;;;;;;;;;;4977709;28;20105;-73
2022/06/08 10:34:06;;;;;;;1.25;0.90;;;;;;;;;;4972351;28;20043;-75
2022/06/08 10:36:33;;;;;;;2.65;1.08;;;;;;;;;;4988122;28;20021;-75
2022/06/08 10:39:01;;;;;;;3.20;1.02;;;;;;;;;;4982416;28;20941;-76
2022/06/08 10:44:31;;;;;;;2.20;0.90;;;;;;;;;;4981795;28;20248;-74
2022/06/08 10:47:18;;;;;;;2.92;0.93;;;;;;;;;;4982490;28;20057;-75
2022/06/08 10:50:03;;;;;;;1.42;0.90;;;;;;;;;;4982679;28;20031;-77
2022/06/08 10:52:43;;;;;;;3.40;1.27;;;;;;;;;;4981033;28;20043;-74
2022/06/08 10:55:16;;;;;;;2.30;1.05;;;;;;;;;;4982261;28;20026;-75
2022/06/08 10:57:51;;;;;;;1.45;0.93;;;;;;;;;;4980446;28;20021;-72
2022/06/08 11:00:20;;;;;;;1.73;0.93;;;;;;;;;;4980088;28;20644;-75
2022/06/08 11:02:55;;;;;;;0.80;0.80;;;;;;;;;;4979609;28;20038;-76
2022/06/08 11:05:33;;;;;;;1.95;0.90;;;;;;;;;;4984601;28;20041;-73
2022/06/08 11:07:58;;;;;;;1.58;0.90;;;;;;;;;;4983224;28;20034;-74
2022/06/08 11:10:58;;;;;;;0.70;0.70;;;;;;;;;;4979946;28;20045;-75
2022/06/08 11:13:26;;;;;;;3.33;1.20;;;;;;;;;;4988017;28;20469;-75
2022/06/08 11:16:16;;;;;;;2.50;0.95;;;;;;;;;;4985613;28;20692;-74
2022/06/08 11:18:55;;;;;;;3.90;1.83;;;;;;;;;;4981822;28;20045;-76
2022/06/08 11:21:39;;;;;;;4.93;2.10;;;;;;;;;;4975136;28;20799;-75
2022/06/08 11:24:35;;;;;;;5.13;2.38;;;;;;;;;;4985107;28;20138;-75
2022/06/08 11:27:00;;;;;;;7.55;2.08;;;;;;;;;;4984435;28;20126;-72
2022/06/08 11:29:29;;;;;;;5.07;2.45;;;;;;;;;;4996790;28;20026;-72
2022/06/08 11:31:56;;;;;;;5.57;2.53;;;;;;;;;;4992491;28;20329;-73
2022/06/08 11:34:22;;;;;;;25.50;17.83;;;;;;;;;;4984114;28;20041;-74
2022/06/08 11:36:50;;;;;;;4.05;2.80;;;;;;;;;;4976791;28;20034;-74
2022/06/08 11:39:45;;;;;;;1.60;1.50;;;;;;;;;;4996161;28;20068;-76
2022/06/08 11:42:13;;;;;;;14.82;10.43;;;;;;;;;;4988302;28;20022;-76
2022/06/08 11:44:50;;;;;;;17.95;11.88;;;;;;;;;;4986234;28;20731;-77
2022/06/08 11:47:29;;;;;;;4.18;2.65;;;;;;;;;;5001320;28;20069;-74
2022/06/08 11:50:02;;;;;;;6.20;2.78;;;;;;;;;;4991302;28;20065;-74
2022/06/08 11:52:32;;;;;;;5.63;2.40;;;;;;;;;;4981581;28;20061;-74
2022/06/08 11:55:01;;;;;;;6.13;2.95;;;;;;;;;;4985634;28;20045;-75
2022/06/08 11:57:28;;;;;;;7.05;3.30;;;;;;;;;;4984380;28;20044;-73
2022/06/08 11:59:57;;;;;;;8.52;3.35;;;;;;;;;;4983056;28;20505;-76
2022/06/08 12:02:34;;;;;;;4.95;3.20;;;;;;;;;;4984421;28;20069;-75
2022/06/08 12:05:00;;;;;;;4.60;3.20;;;;;;;;;;4981800;28;20034;-72
2022/06/08 12:07:39;;;;;;;9.70;2.63;;;;;;;;;;4998648;28;20135;-73
2022/06/08 12:10:06;;;;;;;9.77;2.60;;;;;;;;;;4976730;28;20041;-76
2022/06/08 12:12:34;;;;;;;9.43;2.97;;;;;;;;;;4993954;28;20510;-74
2022/06/08 12:15:32;;;;;;;4.65;2.17;;;;;;;;;;4990548;28;20578;-75
2022/06/08 12:18:09;;;;;;;6.70;2.90;;;;;;;;;;4997559;28;20714;-75
2022/06/08 12:20:38;;;;;;;5.82;2.20;;;;;;;;;;4977127;28;20034;-73
2022/06/08 12:23:04;;;;;;;7.32;2.90;;;;;;;;;;4979894;28;20173;-75
2022/06/08 12:25:32;;;;;;;2.15;1.92;;;;;;;;;;4978538;28;20517;-75
2022/06/08 12:28:18;;;;;;;3.22;1.75;;;;;;;;;;4983992;28;20037;-75
2022/06/08 12:30:50;;;;;;;6.50;1.50;;;;;;;;;;4992064;28;20034;-73
2022/06/08 12:33:16;;;;;;;2.22;1.60;;;;;;;;;;4981930;28;20097;-75
2022/06/08 12:36:24;;;;;;;6.32;1.90;;;;;;;;;;4981834;28;20030;-75
2022/06/08 12:39:15;;;;;;;1.27;0.88;;;;;;;;;;4988840;28;20469;-76
2022/06/08 12:41:47;;;;;;;3.15;1.20;;;;;;;;;;4980956;28;20113;-76
2022/06/08 12:44:24;;;;;;;4.45;2.40;;;;;;;;;;4981125;28;20027;-74
2022/06/08 12:46:49;;;;;;;3.42;1.63;;;;;;;;;;4980048;28;21414;-75
2022/06/08 12:49:27;;;;;;;1.63;1.10;;;;;;;;;;4983769;28;20033;-75
2022/06/08 12:51:58;;;;;;;3.35;1.30;;;;;;;;;;4976241;28;20075;-75
2022/06/08 12:54:33;;;;;;;5.35;2.00;;;;;;;;;;4981663;28;20549;-76
2022/06/08 12:57:16;;;;;;;13.48;3.47;;;;;;;;;;4982125;28;20046;-76
2022/06/08 12:59:43;;;;;;;7.15;2.40;;;;;;;;;;4982322;28;20552;-76
2022/06/08 13:02:16;;;;;;;16.50;11.13;;;;;;;;;;4981809;28;20026;-76
2022/06/08 13:04:42;;;;;;;7.47;2.80;;;;;;;;;;4989492;28;20652;-73
2022/06/08 13:07:13;;;;;;;8.10;2.58;;;;;;;;;;4983847;28;20475;-73
2022/06/08 13:09:39;;;;;;;7.72;2.38;;;;;;;;;;4984336;28;20457;-74
2022/06/08 13:12:05;;;;;;;5.78;1.50;;;;;;;;;;4978304;28;20031;-75
2022/06/08 13:14:32;;;;;;;1.88;1.55;;;;;;;;;;4996838;28;20807;-75
2022/06/08 13:16:58;;;;;;;4.35;1.50;;;;;;;;;;4985280;28;20049;-75
2022/06/08 13:19:24;;;;;;;3.60;1.25;;;;;;;;;;4989497;28;20685;-74
2022/06/08 13:21:49;;;;;;;2.42;1.10;;;;;;;;;;4986571;28;20035;-74
2022/06/08 13:24:16;;;;;;;2.47;1.33;;;;;;;;;;4981213;28;20462;-74
2022/06/08 13:26:43;;;;;;;4.00;1.33;;;;;;;;;;4981928;28;20033;-74
2022/06/08 13:29:12;;;;;;;9.18;1.70;;;;;;;;;;4985986;28;20042;-73
2022/06/08 13:31:38;;;;;;;3.33;1.55;;;;;;;;;;4982739;28;20062;-76
2022/06/08 13:34:03;;;;;;;2.80;1.63;;;;;;;;;;5000970;28;20085;-75
2022/06/08 13:36:41;;;;;;;5.55;2.10;;;;;;;;;;4988606;28;20061;-74
2022/06/08 13:39:16;;;;;;;2.08;1.42;;;;;;;;;;4991791;28;20030;-76
2022/06/08 13:41:49;;;;;;;7.65;2.70;;;;;;;;;;4984833;28;20027;-75
2022/06/08 13:44:25;;;;;;;4.65;3.60;;;;;;;;;;4980906;28;20479;-75
2022/06/08 13:46:54;;;;;;;2.75;1.95;;;;;;;;;;4999664;28;20038;-74
2022/06/08 13:49:22;;;;;;;5.72;2.03;;;;;;;;;;4993076;28;20419;-75
2022/06/08 13:51:49;;;;;;;3.13;1.85;;;;;;;;;;4995240;28;20034;-75
2022/06/08 13:54:29;;;;;;;4.18;1.48;;;;;;;;;;4983716;28;20026;-74
2022/06/08 13:56:55;;;;;;;;;;;;;;;;;;4985597;28;20475;-74
2022/06/08 13:59:22;;;;;;;1.70;1.60;;;;;;;;;;4985182;28;19917;-75
2022/06/08 14:01:49;;;;;;;3.85;1.63;;;;;;;;;;4983522;28;20030;-74
2022/06/08 14:04:26;;;;;;;8.10;1.58;;;;;;;;;;4982162;28;20033;-74
2022/06/08 14:15:09;;;;;;;3.28;1.08;;;;;;;;;;4983013;28;20105;-73
2022/06/08 14:17:36;;;;;;;2.08;1.30;;;;;;;;;;4987111;28;20035;-73
2022/06/08 14:20:03;;;;;;;6.38;1.40;;;;;;;;;;5011581;28;20060;-75
2022/06/08 14:22:35;;;;;;;3.03;1.38;;;;;;;;;;4997775;28;20043;-74
2022/06/08 14:25:08;;;;;;;3.65;1.70;;;;;;;;;;4978747;28;20108;-74
2022/06/08 14:27:35;;;;;;;2.53;1.50;;;;;;;;;;4995048;28;20056;-76
2022/06/08 14:30:07;;;;;;;1.55;1.40;;;;;;;;;;4980778;28;20062;-74
2022/06/08 14:32:39;;;;;;;3.33;1.40;;;;;;;;;;5005708;28;20030;-76
2022/06/08 14:35:13;;;;;;;6.82;1.70;;;;;;;;;;4973906;28;20353;-76
2022/06/08 14:37:38;;;;;;;3.38;1.25;;;;;;;;;;4972197;28;20176;-76
2022/06/08 14:40:10;;;;;;;3.53;1.02;;;;;;;;;;4976418;28;20109;-75
2022/06/08 14:42:37;;;;;;;3.85;1.25;;;;;;;;;;4985577;28;20046;-76
2022/06/08 14:45:04;;;;;;;5.63;1.20;;;;;;;;;;5005372;28;20065;-75
2022/06/08 14:47:30;;;;;;;3.28;1.33;;;;;;;;;;5006555;28;20033;-76
2022/06/08 14:49:56;;;;;;;3.30;1.45;;;;;;;;;;4988134;28;20042;-75
2022/06/08 14:52:25;;;;;;;3.28;1.10;;;;;;;;;;4989258;28;20162;-77
2022/06/08 14:54:51;;;;;;;2.60;1.90;;;;;;;;;;5025774;28;20053;-75
2022/06/08 14:57:32;;;;;;;1.52;1.13;;;;;;;;;;5003709;28;20394;-76
2022/06/08 15:00:04;;;;;;;;;;;;;;;;;;4988847;28;20126;-76
2022/06/08 15:02:36;;;;;;;6.30;1.65;;;;;;;;;;4987834;28;19996;-77
2022/06/08 15:05:07;;;;;;;3.20;1.55;;;;;;;;;;5005288;28;20030;-76
2022/06/08 15:07:37;;;;;;;3.03;1.23;;;;;;;;;;5000808;28;20386;-81
2022/06/08 15:10:07;;;;;;;1.20;1.05;;;;;;;;;;5015129;28;20030;-81
2022/06/08 15:12:37;;;;;;;3.78;1.45;;;;;;;;;;4985113;28;20041;-81
2022/06/08 15:15:22;;;;;;;2.13;1.40;;;;;;;;;;5005855;28;20034;-79
2022/06/08 15:17:51;;;;;;;1.27;1.05;;;;;;;;;;5001763;28;20142;-79
2022/06/08 15:20:28;;;;;;;4.93;1.48;;;;;;;;;;4991629;28;20030;-82
2022/06/08 15:22:59;;;;;;;1.67;1.10;;;;;;;;;;4991542;28;20100;-81
2022/06/08 15:25:33;;;;;;;2.95;1.30;;;;;;;;;;4988417;28;20042;-81
2022/06/08 15:28:16;;;;;;;3.65;1.17;;;;;;;;;;4978692;28;20026;-82
2022/06/08 15:30:44;;;;;;;0.60;0.60;;;;;;;;;;4990880;28;20471;-81
2022/06/08 15:33:16;;;;;;;1.75;0.90;;;;;;;;;;4986599;28;20046;-79